sensor_id;sensor_type;location;lat;lon;timestamp;pressure;altitude;pressure_sealevel;temperature;humidity
11808;BME280;5961;42.640;23.380;2023-07-22T00:00:49;94041.06;;;28.59;46.14
11808;BME280;5961;42.640;23.380;2023-07-22T00:03:15;94044.84;;;28.52;46.44
11808;BME280;5961;42.640;23.380;2023-07-22T00:05:42;94037.72;;;28.33;46.89
11808;BME280;5961;42.640;23.380;2023-07-22T00:08:09;94050.75;;;28.29;46.86
11808;BME280;5961;42.640;23.380;2023-07-22T00:10:40;94051.31;;;28.24;47.16
11808;BME280;5961;42.640;23.380;2023-07-22T00:13:07;94049.19;;;28.19;47.64
11808;BME280;5961;42.640;23.380;2023-07-22T00:15:34;94050.31;;;28.09;48.63
11808;BME280;5961;42.640;23.380;2023-07-22T00:18:00;94055.13;;;28.05;48.44
11808;BME280;5961;42.640;23.380;2023-07-22T00:20:27;94059.94;;;28.01;48.05
11808;BME280;5961;42.640;23.380;2023-07-22T00:22:54;94057.31;;;27.97;48.24
11808;BME280;5961;42.640;23.380;2023-07-22T00:25:21;94055.47;;;27.94;48.77
11808;BME280;5961;42.640;23.380;2023-07-22T00:27:50;94049.69;;;27.92;49.25
11808;BME280;5961;42.640;23.380;2023-07-22T00:30:17;94052.53;;;27.89;49.20
11808;BME280;5961;42.640;23.380;2023-07-22T00:32:43;94058.63;;;27.93;49.00
11808;BME280;5961;42.640;23.380;2023-07-22T00:35:10;94059.28;;;27.97;48.98
11808;BME280;5961;42.640;23.380;2023-07-22T00:37:37;94067.16;;;27.95;48.96
11808;BME280;5961;42.640;23.380;2023-07-22T00:40:04;94065.06;;;27.99;49.04
11808;BME280;5961;42.640;23.380;2023-07-22T00:42:36;94071.16;;;28.03;48.81
11808;BME280;5961;42.640;23.380;2023-07-22T00:45:06;94063.84;;;28.00;48.90
11808;BME280;5961;42.640;23.380;2023-07-22T00:47:33;94057.50;;;28.03;48.73
11808;BME280;5961;42.640;23.380;2023-07-22T00:50:01;94054.47;;;28.01;48.66
11808;BME280;5961;42.640;23.380;2023-07-22T00:52:28;94066.81;;;27.93;48.81
11808;BME280;5961;42.640;23.380;2023-07-22T00:54:56;94070.97;;;27.97;48.82
11808;BME280;5961;42.640;23.380;2023-07-22T00:57:22;94065.63;;;27.94;48.84
11808;BME280;5961;42.640;23.380;2023-07-22T00:59:49;94075.69;;;27.84;49.20
11808;BME280;5961;42.640;23.380;2023-07-22T01:02:18;94079.44;;;27.77;49.13
11808;BME280;5961;42.640;23.380;2023-07-22T01:04:45;94070.91;;;27.75;49.69
11808;BME280;5961;42.640;23.380;2023-07-22T01:07:12;94064.69;;;27.75;49.76
11808;BME280;5961;42.640;23.380;2023-07-22T01:09:41;94050.72;;;27.73;49.81
11808;BME280;5961;42.640;23.380;2023-07-22T01:12:08;94064.81;;;27.71;49.75
11808;BME280;5961;42.640;23.380;2023-07-22T01:14:37;94051.72;;;27.41;50.89
11808;BME280;5961;42.640;23.380;2023-07-22T01:17:04;94048.78;;;27.36;52.24
11808;BME280;5961;42.640;23.380;2023-07-22T01:19:34;94013.88;;;27.05;53.84
11808;BME280;5961;42.640;23.380;2023-07-22T01:22:01;94049.25;;;27.21;54.67
11808;BME280;5961;42.640;23.380;2023-07-22T01:24:30;94035.81;;;27.02;56.28
11808;BME280;5961;42.640;23.380;2023-07-22T01:26:57;94036.94;;;26.92;57.84
11808;BME280;5961;42.640;23.380;2023-07-22T01:29:25;94040.72;;;26.82;58.26
11808;BME280;5961;42.640;23.380;2023-07-22T01:31:53;94042.75;;;26.78;58.73
11808;BME280;5961;42.640;23.380;2023-07-22T01:34:21;94040.47;;;26.76;58.84
11808;BME280;5961;42.640;23.380;2023-07-22T01:36:50;94030.28;;;26.80;58.94
11808;BME280;5961;42.640;23.380;2023-07-22T01:39:18;94023.81;;;26.74;59.90
11808;BME280;5961;42.640;23.380;2023-07-22T01:41:46;94023.25;;;26.66;60.93
11808;BME280;5961;42.640;23.380;2023-07-22T01:44:13;94015.00;;;26.41;62.29
11808;BME280;5961;42.640;23.380;2023-07-22T01:46:40;94012.06;;;26.07;63.70
11808;BME280;5961;42.640;23.380;2023-07-22T01:49:09;94022.13;;;26.10;63.91
11808;BME280;5961;42.640;23.380;2023-07-22T01:51:36;94020.75;;;26.02;64.47
11808;BME280;5961;42.640;23.380;2023-07-22T01:54:03;94004.72;;;25.91;64.91
11808;BME280;5961;42.640;23.380;2023-07-22T01:56:30;94006.28;;;25.76;65.79
11808;BME280;5961;42.640;23.380;2023-07-22T01:58:58;94017.63;;;25.75;66.21
11808;BME280;5961;42.640;23.380;2023-07-22T02:01:25;94013.22;;;25.64;66.65
11808;BME280;5961;42.640;23.380;2023-07-22T02:03:52;94016.25;;;25.67;66.98
11808;BME280;5961;42.640;23.380;2023-07-22T02:06:19;94013.81;;;25.56;67.43
11808;BME280;5961;42.640;23.380;2023-07-22T02:08:46;94013.59;;;25.50;68.37
11808;BME280;5961;42.640;23.380;2023-07-22T02:11:12;93965.69;;;25.21;68.82
11808;BME280;5961;42.640;23.380;2023-07-22T02:13:39;94012.19;;;25.42;68.73
11808;BME280;5961;42.640;23.380;2023-07-22T02:16:07;94002.84;;;25.43;68.92
11808;BME280;5961;42.640;23.380;2023-07-22T02:18:36;94015.34;;;25.41;69.42
11808;BME280;5961;42.640;23.380;2023-07-22T02:21:03;94021.97;;;25.40;69.51
11808;BME280;5961;42.640;23.380;2023-07-22T02:23:30;94015.75;;;25.39;69.65
11808;BME280;5961;42.640;23.380;2023-07-22T02:25:57;94016.28;;;25.34;69.92
11808;BME280;5961;42.640;23.380;2023-07-22T02:28:24;94013.41;;;25.25;70.17
11808;BME280;5961;42.640;23.380;2023-07-22T02:30:52;94022.25;;;25.29;69.92
11808;BME280;5961;42.640;23.380;2023-07-22T02:33:21;94026.47;;;25.30;69.67
11808;BME280;5961;42.640;23.380;2023-07-22T02:35:48;94005.41;;;25.18;69.79
11808;BME280;5961;42.640;23.380;2023-07-22T02:38:15;94024.28;;;25.25;70.30
11808;BME280;5961;42.640;23.380;2023-07-22T02:40:42;94027.53;;;25.20;70.72
11808;BME280;5961;42.640;23.380;2023-07-22T02:43:09;94033.97;;;25.10;71.29
11808;BME280;5961;42.640;23.380;2023-07-22T02:45:36;94029.53;;;25.16;70.90
11808;BME280;5961;42.640;23.380;2023-07-22T02:48:03;94031.94;;;25.14;70.91
11808;BME280;5961;42.640;23.380;2023-07-22T02:50:31;94034.66;;;25.14;71.30
11808;BME280;5961;42.640;23.380;2023-07-22T02:52:58;94031.16;;;25.14;71.51
11808;BME280;5961;42.640;23.380;2023-07-22T02:55:25;94020.44;;;25.06;71.76
11808;BME280;5961;42.640;23.380;2023-07-22T02:57:51;94027.34;;;25.11;71.72
11808;BME280;5961;42.640;23.380;2023-07-22T03:00:19;94023.44;;;24.96;71.77
11808;BME280;5961;42.640;23.380;2023-07-22T03:02:49;94032.94;;;25.04;72.30
11808;BME280;5961;42.640;23.380;2023-07-22T03:05:16;94038.13;;;24.98;72.08
11808;BME280;5961;42.640;23.380;2023-07-22T03:07:44;94030.38;;;24.97;72.27
11808;BME280;5961;42.640;23.380;2023-07-22T03:10:11;94033.94;;;24.94;72.25
11808;BME280;5961;42.640;23.380;2023-07-22T03:12:38;94032.25;;;24.84;72.93
11808;BME280;5961;42.640;23.380;2023-07-22T03:15:05;94031.41;;;24.87;72.34
11808;BME280;5961;42.640;23.380;2023-07-22T03:17:34;93976.22;;;24.34;70.07
11808;BME280;5961;42.640;23.380;2023-07-22T03:20:01;94033.53;;;24.76;71.74
11808;BME280;5961;42.640;23.380;2023-07-22T03:22:27;94033.41;;;24.83;69.03
11808;BME280;5961;42.640;23.380;2023-07-22T03:24:55;94031.53;;;24.80;67.78
11808;BME280;5961;42.640;23.380;2023-07-22T03:27:22;94035.41;;;24.79;70.95
11808;BME280;5961;42.640;23.380;2023-07-22T03:29:49;94036.84;;;24.87;70.03
11808;BME280;5961;42.640;23.380;2023-07-22T03:32:16;94025.28;;;24.83;71.51
11808;BME280;5961;42.640;23.380;2023-07-22T03:34:42;94050.06;;;24.85;72.08
11808;BME280;5961;42.640;23.380;2023-07-22T03:37:09;94024.09;;;24.84;71.04
11808;BME280;5961;42.640;23.380;2023-07-22T03:39:36;94040.59;;;24.93;71.19
11808;BME280;5961;42.640;23.380;2023-07-22T03:42:05;94048.81;;;25.05;68.66
11808;BME280;5961;42.640;23.380;2023-07-22T03:44:32;94054.88;;;25.13;66.12
11808;BME280;5961;42.640;23.380;2023-07-22T03:46:59;94064.75;;;25.23;65.88
11808;BME280;5961;42.640;23.380;2023-07-22T03:49:26;94059.31;;;25.23;65.98
11808;BME280;5961;42.640;23.380;2023-07-22T03:51:53;94077.25;;;25.37;65.72
11808;BME280;5961;42.640;23.380;2023-07-22T03:54:20;94044.16;;;25.22;64.99
11808;BME280;5961;42.640;23.380;2023-07-22T03:56:46;94071.19;;;25.45;65.30
11808;BME280;5961;42.640;23.380;2023-07-22T03:59:14;94083.63;;;25.46;65.21
11808;BME280;5961;42.640;23.380;2023-07-22T04:01:41;94087.38;;;25.52;65.18
11808;BME280;5961;42.640;23.380;2023-07-22T04:04:08;94086.63;;;25.52;64.98
11808;BME280;5961;42.640;23.380;2023-07-22T04:06:35;94086.00;;;25.44;65.07
11808;BME280;5961;42.640;23.380;2023-07-22T04:09:02;94055.38;;;25.24;65.59
11808;BME280;5961;42.640;23.380;2023-07-22T04:11:28;94083.91;;;25.52;65.68
11808;BME280;5961;42.640;23.380;2023-07-22T04:13:55;94092.66;;;25.59;65.60
11808;BME280;5961;42.640;23.380;2023-07-22T04:16:23;94070.97;;;25.56;65.62
11808;BME280;5961;42.640;23.380;2023-07-22T04:18:50;94092.66;;;25.59;65.36
11808;BME280;5961;42.640;23.380;2023-07-22T04:21:16;94085.94;;;25.64;65.63
11808;BME280;5961;42.640;23.380;2023-07-22T04:23:43;94086.53;;;25.72;65.36
11808;BME280;5961;42.640;23.380;2023-07-22T04:26:10;94079.13;;;25.72;65.48
11808;BME280;5961;42.640;23.380;2023-07-22T04:28:37;94097.47;;;25.84;64.92
11808;BME280;5961;42.640;23.380;2023-07-22T04:31:03;94094.59;;;25.91;65.19
11808;BME280;5961;42.640;23.380;2023-07-22T04:33:32;94089.53;;;25.90;64.67
11808;BME280;5961;42.640;23.380;2023-07-22T04:35:59;94106.72;;;26.03;64.54
11808;BME280;5961;42.640;23.380;2023-07-22T04:38:26;94093.28;;;25.96;64.25
11808;BME280;5961;42.640;23.380;2023-07-22T04:40:53;94098.88;;;26.05;64.56
11808;BME280;5961;42.640;23.380;2023-07-22T04:43:20;94112.41;;;26.08;64.67
11808;BME280;5961;42.640;23.380;2023-07-22T04:45:47;94109.28;;;26.10;65.10
11808;BME280;5961;42.640;23.380;2023-07-22T04:48:14;94108.06;;;26.11;64.62
11808;BME280;5961;42.640;23.380;2023-07-22T04:50:43;94108.06;;;26.11;64.70
11808;BME280;5961;42.640;23.380;2023-07-22T04:53:11;94119.41;;;26.09;65.32
11808;BME280;5961;42.640;23.380;2023-07-22T04:55:39;94107.59;;;26.16;65.13
11808;BME280;5961;42.640;23.380;2023-07-22T04:58:06;94072.00;;;26.07;64.88
11808;BME280;5961;42.640;23.380;2023-07-22T05:00:33;94105.66;;;26.29;64.74
11808;BME280;5961;42.640;23.380;2023-07-22T05:03:00;94045.97;;;25.90;64.20
11808;BME280;5961;42.640;23.380;2023-07-22T05:05:27;94107.78;;;26.38;64.14
11808;BME280;5961;42.640;23.380;2023-07-22T05:07:55;94109.97;;;26.43;63.53
11808;BME280;5961;42.640;23.380;2023-07-22T05:10:22;94118.06;;;26.46;63.51
11808;BME280;5961;42.640;23.380;2023-07-22T05:12:49;94119.78;;;26.40;63.98
11808;BME280;5961;42.640;23.380;2023-07-22T05:15:15;94118.06;;;26.46;64.39
11808;BME280;5961;42.640;23.380;2023-07-22T05:17:42;94120.00;;;26.46;64.64
11808;BME280;5961;42.640;23.380;2023-07-22T05:20:09;94128.09;;;26.49;64.47
11808;BME280;5961;42.640;23.380;2023-07-22T05:22:37;94123.69;;;26.39;64.85
11808;BME280;5961;42.640;23.380;2023-07-22T05:25:06;94111.94;;;26.42;64.77
11808;BME280;5961;42.640;23.380;2023-07-22T05:27:33;94112.06;;;26.51;64.42
11808;BME280;5961;42.640;23.380;2023-07-22T05:30:00;94131.19;;;26.64;64.31
11808;BME280;5961;42.640;23.380;2023-07-22T05:32:28;94116.38;;;26.65;64.66
11808;BME280;5961;42.640;23.380;2023-07-22T05:34:55;94127.06;;;26.72;64.57
11808;BME280;5961;42.640;23.380;2023-07-22T05:37:22;94125.78;;;26.77;64.04
11808;BME280;5961;42.640;23.380;2023-07-22T05:39:50;94120.28;;;26.64;63.34
11808;BME280;5961;42.640;23.380;2023-07-22T05:42:18;94128.16;;;26.74;62.77
11808;BME280;5961;42.640;23.380;2023-07-22T05:44:45;94125.09;;;26.72;62.80
11808;BME280;5961;42.640;23.380;2023-07-22T05:47:11;94126.88;;;26.79;63.50
11808;BME280;5961;42.640;23.380;2023-07-22T05:49:38;94126.81;;;26.83;63.73
11808;BME280;5961;42.640;23.380;2023-07-22T05:52:05;94144.16;;;26.89;63.57
11808;BME280;5961;42.640;23.380;2023-07-22T05:54:32;94137.38;;;26.93;63.95
11808;BME280;5961;42.640;23.380;2023-07-22T05:56:59;94141.09;;;26.99;63.56
11808;BME280;5961;42.640;23.380;2023-07-22T05:59:27;94137.97;;;27.01;63.10
11808;BME280;5961;42.640;23.380;2023-07-22T06:01:54;94135.25;;;27.01;62.48
11808;BME280;5961;42.640;23.380;2023-07-22T06:04:21;94136.22;;;27.07;62.51
11808;BME280;5961;42.640;23.380;2023-07-22T06:06:48;94139.28;;;27.09;62.86
11808;BME280;5961;42.640;23.380;2023-07-22T06:09:15;94142.22;;;27.14;63.16
11808;BME280;5961;42.640;23.380;2023-07-22T06:11:41;94150.00;;;27.16;62.33
11808;BME280;5961;42.640;23.380;2023-07-22T06:14:08;94149.75;;;27.23;61.59
11808;BME280;5961;42.640;23.380;2023-07-22T06:16:36;94155.34;;;27.19;62.34
11808;BME280;5961;42.640;23.380;2023-07-22T06:19:03;94165.25;;;27.26;62.59
11808;BME280;5961;42.640;23.380;2023-07-22T06:21:30;94168.84;;;27.23;63.29
11808;BME280;5961;42.640;23.380;2023-07-22T06:23:57;94173.22;;;27.20;62.69
11808;BME280;5961;42.640;23.380;2023-07-22T06:26:23;94169.84;;;27.29;61.87
11808;BME280;5961;42.640;23.380;2023-07-22T06:28:50;94179.91;;;27.32;62.52
11808;BME280;5961;42.640;23.380;2023-07-22T06:31:17;94184.47;;;27.35;63.21
11808;BME280;5961;42.640;23.380;2023-07-22T06:33:45;94170.31;;;27.40;62.28
11808;BME280;5961;42.640;23.380;2023-07-22T06:36:11;94166.91;;;27.36;61.46
11808;BME280;5961;42.640;23.380;2023-07-22T06:38:38;94179.19;;;27.57;61.72
11808;BME280;5961;42.640;23.380;2023-07-22T06:41:05;94181.38;;;27.62;61.64
11808;BME280;5961;42.640;23.380;2023-07-22T06:43:31;94181.50;;;27.71;60.64
11808;BME280;5961;42.640;23.380;2023-07-22T06:45:58;94186.72;;;27.78;60.48
11808;BME280;5961;42.640;23.380;2023-07-22T06:48:25;94181.47;;;27.84;60.77
11808;BME280;5961;42.640;23.380;2023-07-22T06:50:53;94191.84;;;27.89;60.05
11808;BME280;5961;42.640;23.380;2023-07-22T06:53:20;94180.34;;;27.94;60.20
11808;BME280;5961;42.640;23.380;2023-07-22T06:55:51;94182.88;;;28.01;60.09
11808;BME280;5961;42.640;23.380;2023-07-22T06:58:18;94137.44;;;27.69;59.87
11808;BME280;5961;42.640;23.380;2023-07-22T07:00:44;94183.88;;;28.07;59.48
11808;BME280;5961;42.640;23.380;2023-07-22T07:03:11;94178.72;;;28.09;59.15
11808;BME280;5961;42.640;23.380;2023-07-22T07:05:38;94172.69;;;28.14;58.98
11808;BME280;5961;42.640;23.380;2023-07-22T07:08:08;94173.91;;;28.13;59.07
11808;BME280;5961;42.640;23.380;2023-07-22T07:10:37;94175.09;;;28.24;59.05
11808;BME280;5961;42.640;23.380;2023-07-22T07:13:04;94174.00;;;28.22;59.14
11808;BME280;5961;42.640;23.380;2023-07-22T07:15:31;94172.13;;;28.31;59.23
11808;BME280;5961;42.640;23.380;2023-07-22T07:17:58;94158.38;;;28.22;58.88
11808;BME280;5961;42.640;23.380;2023-07-22T07:20:24;94170.34;;;28.38;58.92
11808;BME280;5961;42.640;23.380;2023-07-22T07:22:51;94177.88;;;28.46;59.11
11808;BME280;5961;42.640;23.380;2023-07-22T07:25:19;94167.81;;;28.43;60.37
11808;BME280;5961;42.640;23.380;2023-07-22T07:27:46;94171.63;;;28.46;59.84
11808;BME280;5961;42.640;23.380;2023-07-22T07:30:12;94154.31;;;28.27;59.85
11808;BME280;5961;42.640;23.380;2023-07-22T07:32:39;94161.31;;;28.50;59.82
11808;BME280;5961;42.640;23.380;2023-07-22T07:35:07;94152.81;;;28.48;59.68
11808;BME280;5961;42.640;23.380;2023-07-22T07:37:34;94157.25;;;28.54;59.92
11808;BME280;5961;42.640;23.380;2023-07-22T07:40:01;94141.44;;;28.49;59.35
11808;BME280;5961;42.640;23.380;2023-07-22T07:42:30;94155.50;;;28.60;59.66
11808;BME280;5961;42.640;23.380;2023-07-22T07:44:57;94151.56;;;28.61;59.52
11808;BME280;5961;42.640;23.380;2023-07-22T07:47:23;94130.22;;;28.56;59.09
11808;BME280;5961;42.640;23.380;2023-07-22T07:49:50;94149.34;;;28.69;59.27
11808;BME280;5961;42.640;23.380;2023-07-22T07:52:17;94150.00;;;28.73;59.51
11808;BME280;5961;42.640;23.380;2023-07-22T07:54:43;94153.22;;;28.80;59.13
11808;BME280;5961;42.640;23.380;2023-07-22T07:57:10;94152.78;;;28.82;59.00
11808;BME280;5961;42.640;23.380;2023-07-22T07:59:38;94147.50;;;28.88;58.86
11808;BME280;5961;42.640;23.380;2023-07-22T08:02:05;94152.72;;;28.95;58.68
11808;BME280;5961;42.640;23.380;2023-07-22T08:04:34;94150.94;;;29.01;58.89
11808;BME280;5961;42.640;23.380;2023-07-22T08:07:01;94149.72;;;29.02;58.82
11808;BME280;5961;42.640;23.380;2023-07-22T08:09:29;94139.72;;;29.08;59.24
11808;BME280;5961;42.640;23.380;2023-07-22T08:11:56;94147.38;;;29.13;57.92
11808;BME280;5961;42.640;23.380;2023-07-22T08:14:23;94141.13;;;29.12;57.93
11808;BME280;5961;42.640;23.380;2023-07-22T08:16:51;94150.41;;;29.15;58.31
11808;BME280;5961;42.640;23.380;2023-07-22T08:19:18;94138.06;;;29.10;57.71
11808;BME280;5961;42.640;23.380;2023-07-22T08:21:44;94141.91;;;29.13;58.26
11808;BME280;5961;42.640;23.380;2023-07-22T08:24:11;94141.31;;;29.18;58.67
11808;BME280;5961;42.640;23.380;2023-07-22T08:26:38;94139.19;;;29.22;58.51
11808;BME280;5961;42.640;23.380;2023-07-22T08:29:04;94131.31;;;29.24;57.77
11808;BME280;5961;42.640;23.380;2023-07-22T08:31:31;94140.00;;;29.31;58.14
11808;BME280;5961;42.640;23.380;2023-07-22T08:33:59;94132.44;;;29.35;57.95
11808;BME280;5961;42.640;23.380;2023-07-22T08:36:26;94131.72;;;29.44;57.51
11808;BME280;5961;42.640;23.380;2023-07-22T08:38:53;94142.41;;;29.51;57.57
11808;BME280;5961;42.640;23.380;2023-07-22T08:41:19;94143.63;;;29.59;56.98
11808;BME280;5961;42.640;23.380;2023-07-22T08:43:49;94130.56;;;29.63;56.07
11808;BME280;5961;42.640;23.380;2023-07-22T08:46:19;94125.41;;;29.65;55.62
11808;BME280;5961;42.640;23.380;2023-07-22T08:48:46;94112.31;;;29.69;56.24
11808;BME280;5961;42.640;23.380;2023-07-22T08:51:16;94117.19;;;29.74;56.65
11808;BME280;5961;42.640;23.380;2023-07-22T08:53:44;94094.22;;;29.72;56.23
11808;BME280;5961;42.640;23.380;2023-07-22T08:56:11;94107.06;;;29.84;55.41
11808;BME280;5961;42.640;23.380;2023-07-22T08:58:38;94088.03;;;29.89;54.94
11808;BME280;5961;42.640;23.380;2023-07-22T09:01:05;94089.56;;;29.90;54.80
11808;BME280;5961;42.640;23.380;2023-07-22T09:03:33;94092.63;;;30.02;54.76
11808;BME280;5961;42.640;23.380;2023-07-22T09:06:00;94096.00;;;30.06;54.85
11808;BME280;5961;42.640;23.380;2023-07-22T09:08:29;94088.69;;;30.12;54.30
11808;BME280;5961;42.640;23.380;2023-07-22T09:10:56;94087.78;;;30.15;54.56
11808;BME280;5961;42.640;23.380;2023-07-22T09:13:26;94083.81;;;30.16;54.52
11808;BME280;5961;42.640;23.380;2023-07-22T09:15:53;94092.06;;;30.25;54.67
11808;BME280;5961;42.640;23.380;2023-07-22T09:18:20;94088.69;;;30.30;54.20
11808;BME280;5961;42.640;23.380;2023-07-22T09:20:46;94083.22;;;30.30;54.28
11808;BME280;5961;42.640;23.380;2023-07-22T09:23:13;94082.44;;;30.29;53.65
11808;BME280;5961;42.640;23.380;2023-07-22T09:25:42;94082.91;;;30.37;53.82
11808;BME280;5961;42.640;23.380;2023-07-22T09:28:10;94090.41;;;30.45;54.16
11808;BME280;5961;42.640;23.380;2023-07-22T09:30:38;94078.81;;;30.51;54.76
11808;BME280;5961;42.640;23.380;2023-07-22T09:33:07;94076.81;;;30.51;53.97
11808;BME280;5961;42.640;23.380;2023-07-22T09:35:45;94075.59;;;30.61;53.35
11808;BME280;5961;42.640;23.380;2023-07-22T09:38:12;94087.00;;;30.69;53.56
11808;BME280;5961;42.640;23.380;2023-07-22T09:40:42;94038.28;;;30.45;53.00
11808;BME280;5961;42.640;23.380;2023-07-22T09:43:10;94046.34;;;30.58;52.84
11808;BME280;5961;42.640;23.380;2023-07-22T09:45:37;94079.22;;;30.85;51.98
11808;BME280;5961;42.640;23.380;2023-07-22T09:48:04;94071.13;;;30.91;51.91
11808;BME280;5961;42.640;23.380;2023-07-22T09:50:31;94074.03;;;30.96;51.43
11808;BME280;5961;42.640;23.380;2023-07-22T09:52:59;94050.53;;;30.86;52.04
11808;BME280;5961;42.640;23.380;2023-07-22T09:55:27;94074.13;;;31.11;51.15
11808;BME280;5961;42.640;23.380;2023-07-22T09:57:57;94072.72;;;31.16;51.16
11808;BME280;5961;42.640;23.380;2023-07-22T10:00:28;94069.06;;;31.19;49.72
11808;BME280;5961;42.640;23.380;2023-07-22T10:02:56;94066.91;;;31.23;48.66
11808;BME280;5961;42.640;23.380;2023-07-22T10:05:24;94050.72;;;31.25;49.19
11808;BME280;5961;42.640;23.380;2023-07-22T10:07:53;94053.19;;;31.23;47.94
11808;BME280;5961;42.640;23.380;2023-07-22T10:10:24;94058.50;;;31.26;48.93
11808;BME280;5961;42.640;23.380;2023-07-22T10:12:53;94043.13;;;31.20;49.52
11808;BME280;5961;42.640;23.380;2023-07-22T10:15:25;94067.13;;;31.43;49.11
11808;BME280;5961;42.640;23.380;2023-07-22T10:17:53;94066.81;;;31.50;48.92
11808;BME280;5961;42.640;23.380;2023-07-22T10:20:22;94079.34;;;31.51;48.29
11808;BME280;5961;42.640;23.380;2023-07-22T10:22:49;94060.63;;;31.64;47.96
11808;BME280;5961;42.640;23.380;2023-07-22T10:25:18;94054.78;;;31.71;47.66
11808;BME280;5961;42.640;23.380;2023-07-22T10:27:45;94051.13;;;31.74;45.92
11808;BME280;5961;42.640;23.380;2023-07-22T10:30:14;94056.38;;;31.87;46.24
11808;BME280;5961;42.640;23.380;2023-07-22T10:32:44;94058.59;;;31.97;46.65
11808;BME280;5961;42.640;23.380;2023-07-22T10:35:17;94059.50;;;32.03;45.50
11808;BME280;5961;42.640;23.380;2023-07-22T10:37:45;94059.41;;;32.13;45.69
11808;BME280;5961;42.640;23.380;2023-07-22T10:40:19;94052.97;;;32.16;43.10
11808;BME280;5961;42.640;23.380;2023-07-22T10:42:55;94043.91;;;32.24;42.75
11808;BME280;5961;42.640;23.380;2023-07-22T10:45:24;94046.47;;;32.28;42.38
11808;BME280;5961;42.640;23.380;2023-07-22T10:48:02;94043.09;;;32.33;42.53
11808;BME280;5961;42.640;23.380;2023-07-22T10:50:43;94022.97;;;32.27;42.36
11808;BME280;5961;42.640;23.380;2023-07-22T10:53:13;94040.53;;;32.44;40.42
11808;BME280;5961;42.640;23.380;2023-07-22T10:56:02;94027.91;;;32.52;41.20
11808;BME280;5961;42.640;23.380;2023-07-22T10:58:29;94030.59;;;32.61;40.19
11808;BME280;5961;42.640;23.380;2023-07-22T11:00:56;94039.34;;;32.74;41.13
11808;BME280;5961;42.640;23.380;2023-07-22T11:03:24;94035.56;;;32.86;37.48
11808;BME280;5961;42.640;23.380;2023-07-22T11:05:52;94021.97;;;32.97;35.61
11808;BME280;5961;42.640;23.380;2023-07-22T11:08:37;94035.28;;;33.13;32.37
11808;BME280;5961;42.640;23.380;2023-07-22T11:11:06;94032.69;;;33.25;32.81
11808;BME280;5961;42.640;23.380;2023-07-22T11:13:37;94028.66;;;33.40;33.26
11808;BME280;5961;42.640;23.380;2023-07-22T11:16:11;94022.91;;;33.58;32.52
11808;BME280;5961;42.640;23.380;2023-07-22T11:18:40;94048.44;;;33.74;32.35
11808;BME280;5961;42.640;23.380;2023-07-22T11:21:08;94040.19;;;33.94;30.95
11808;BME280;5961;42.640;23.380;2023-07-22T11:23:35;94029.44;;;34.16;30.69
11808;BME280;5961;42.640;23.380;2023-07-22T11:26:02;94044.13;;;34.28;30.60
11808;BME280;5961;42.640;23.380;2023-07-22T11:28:30;94049.06;;;34.44;31.32
11808;BME280;5961;42.640;23.380;2023-07-22T11:30:57;94024.34;;;34.55;31.37
11808;BME280;5961;42.640;23.380;2023-07-22T11:33:24;94011.16;;;34.64;30.48
11808;BME280;5961;42.640;23.380;2023-07-22T11:35:52;94028.38;;;34.80;30.03
11808;BME280;5961;42.640;23.380;2023-07-22T11:38:19;94007.09;;;34.86;29.87
11808;BME280;5961;42.640;23.380;2023-07-22T11:40:46;94020.25;;;34.96;30.05
11808;BME280;5961;42.640;23.380;2023-07-22T11:43:14;93990.66;;;35.02;30.40
11808;BME280;5961;42.640;23.380;2023-07-22T11:45:40;94014.66;;;35.16;29.34
11808;BME280;5961;42.640;23.380;2023-07-22T11:48:09;94002.22;;;35.32;29.65
11808;BME280;5961;42.640;23.380;2023-07-22T11:50:36;93997.94;;;35.37;28.64
11808;BME280;5961;42.640;23.380;2023-07-22T11:53:04;93971.84;;;35.38;29.36
11808;BME280;5961;42.640;23.380;2023-07-22T11:55:34;93999.53;;;35.49;29.35
11808;BME280;5961;42.640;23.380;2023-07-22T11:58:01;94005.34;;;35.51;29.21
11808;BME280;5961;42.640;23.380;2023-07-22T12:00:28;94019.59;;;35.38;29.62
11808;BME280;5961;42.640;23.380;2023-07-22T12:02:55;93991.00;;;35.52;29.01
11808;BME280;5961;42.640;23.380;2023-07-22T12:05:24;93997.56;;;35.55;29.21
11808;BME280;5961;42.640;23.380;2023-07-22T12:07:51;94025.31;;;35.66;29.21
11808;BME280;5961;42.640;23.380;2023-07-22T12:10:19;93995.94;;;35.74;29.52
11808;BME280;5961;42.640;23.380;2023-07-22T12:12:46;93990.19;;;35.83;29.67
11808;BME280;5961;42.640;23.380;2023-07-22T12:15:15;94015.09;;;35.89;29.46
11808;BME280;5961;42.640;23.380;2023-07-22T12:17:47;93998.56;;;36.00;28.75
11808;BME280;5961;42.640;23.380;2023-07-22T12:20:15;93980.75;;;36.06;29.12
11808;BME280;5961;42.640;23.380;2023-07-22T12:22:42;93982.31;;;36.18;28.58
11808;BME280;5961;42.640;23.380;2023-07-22T12:25:09;93989.13;;;36.23;28.72
11808;BME280;5961;42.640;23.380;2023-07-22T12:27:37;93990.91;;;36.31;28.84
11808;BME280;5961;42.640;23.380;2023-07-22T12:30:05;93994.66;;;36.23;27.86
11808;BME280;5961;42.640;23.380;2023-07-22T12:32:32;94013.41;;;36.02;27.93
11808;BME280;5961;42.640;23.380;2023-07-22T12:34:59;94007.34;;;35.93;28.48
11808;BME280;5961;42.640;23.380;2023-07-22T12:37:26;93994.00;;;35.91;28.54
11808;BME280;5961;42.640;23.380;2023-07-22T12:39:53;93964.84;;;35.96;28.57
11808;BME280;5961;42.640;23.380;2023-07-22T12:42:20;93972.81;;;35.77;28.89
11808;BME280;5961;42.640;23.380;2023-07-22T12:44:48;93970.16;;;35.99;28.69
11808;BME280;5961;42.640;23.380;2023-07-22T12:47:15;93959.13;;;36.10;29.29
11808;BME280;5961;42.640;23.380;2023-07-22T12:49:41;93977.78;;;36.21;29.29
11808;BME280;5961;42.640;23.380;2023-07-22T12:52:08;93974.28;;;36.26;28.20
11808;BME280;5961;42.640;23.380;2023-07-22T12:54:36;93964.72;;;36.32;27.71
11808;BME280;5961;42.640;23.380;2023-07-22T12:57:03;93975.31;;;36.40;27.55
11808;BME280;5961;42.640;23.380;2023-07-22T12:59:30;93979.59;;;36.46;27.74
11808;BME280;5961;42.640;23.380;2023-07-22T13:01:58;93961.25;;;36.60;28.77